Time;durP1;ratioP1;P1;durP2;ratioP2;P2;SDS_P1;SDS_P2;PMS_P1;PMS_P2;Temp;Humidity;BMP_temperature;BMP_pressure;BME280_temperature;BME280_humidity;BME280_pressure;Samples;Min_cycle;Max_cycle;Signal;HPM_P1;HPM_P2
2021/08/07 00:01:24;;;;;;;2.30;2.10;;;18.70;99.90;;;;;;4921419;29;20227;-71
2021/08/07 00:03:49;;;;;;;2.10;1.90;;;18.80;99.90;;;;;;4920658;29;20461;-72
2021/08/07 00:06:15;;;;;;;3.00;2.33;;;18.80;99.90;;;;;;4922027;29;20410;-71
2021/08/07 00:08:40;;;;;;;1.93;1.83;;;18.70;99.90;;;;;;4926908;29;20206;-71
2021/08/07 00:11:06;;;;;;;2.43;2.23;;;18.70;99.90;;;;;;4920498;29;20187;-71
2021/08/07 00:13:32;;;;;;;2.40;2.20;;;18.60;99.90;;;;;;4920076;29;20222;-72
2021/08/07 00:15:58;;;;;;;2.80;2.27;;;18.60;99.90;;;;;;4920466;29;20190;-72
2021/08/07 00:18:23;;;;;;;2.30;2.10;;;18.60;99.90;;;;;;4920365;29;20266;-71
2021/08/07 00:20:49;;;;;;;2.00;1.90;;;18.60;99.90;;;;;;4920418;29;20677;-72
2021/08/07 00:23:15;;;;;;;3.27;2.07;;;18.60;99.90;;;;;;4921439;29;20317;-71
2021/08/07 00:25:41;;;;;;;3.25;2.00;;;18.50;99.90;;;;;;4938265;29;20757;-72
2021/08/07 00:28:06;;;;;;;2.63;1.90;;;18.50;99.90;;;;;;4939776;29;20205;-72
2021/08/07 00:30:32;;;;;;;2.47;2.20;;;18.40;99.90;;;;;;4941240;29;20437;-72
2021/08/07 00:32:58;;;;;;;2.83;2.40;;;18.40;99.90;;;;;;4943071;29;20190;-72
2021/08/07 00:35:23;;;;;;;1.97;1.87;;;18.30;99.90;;;;;;4938744;29;20591;-72
2021/08/07 00:37:49;;;;;;;2.20;2.00;;;18.30;99.90;;;;;;4938978;29;20520;-71
2021/08/07 00:40:14;;;;;;;2.90;2.17;;;18.30;99.90;;;;;;4938573;29;20563;-71
2021/08/07 00:42:41;;;;;;;3.40;1.90;;;18.30;99.90;;;;;;4921900;29;20194;-71
2021/08/07 00:45:07;;;;;;;2.60;2.23;;;18.20;99.90;;;;;;4938920;29;20430;-72
2021/08/07 00:47:33;;;;;;;2.20;2.00;;;18.20;99.90;;;;;;4939177;29;20417;-71
2021/08/07 00:49:58;;;;;;;3.30;2.37;;;18.10;99.90;;;;;;4938947;29;20557;-71
2021/08/07 00:52:24;;;;;;;3.10;2.20;;;18.00;99.90;;;;;;4939086;29;20266;-71
2021/08/07 00:54:49;;;;;;;2.13;2.00;;;17.90;99.90;;;;;;4938694;29;20167;-70
2021/08/07 00:57:15;;;;;;;2.00;1.90;;;17.90;99.90;;;;;;4939619;29;20234;-71
2021/08/07 00:59:40;;;;;;;3.00;2.40;;;17.90;99.90;;;;;;4939427;29;20197;-71
2021/08/07 01:02:12;;;;;;;2.50;2.30;;;17.90;99.90;;;;;;4939151;29;20233;-71
2021/08/07 01:04:42;;;;;;;4.93;2.50;;;17.90;99.90;;;;;;4938446;29;20233;-71
2021/08/07 01:07:31;;;;;;;2.90;2.30;;;18.00;99.90;;;;;;4938262;29;20415;-71
2021/08/07 01:10:08;;;;;;;3.73;2.23;;;18.00;99.90;;;;;;4938038;29;20484;-71
2021/08/07 01:13:06;;;;;;;2.53;2.30;;;18.00;99.90;;;;;;4937879;29;20998;-71
2021/08/07 01:15:36;;;;;;;4.13;2.50;;;18.00;99.90;;;;;;4937503;29;20513;-71
2021/08/07 01:18:02;;;;;;;2.37;2.10;;;18.00;99.90;;;;;;4921409;29;20521;-71
2021/08/07 01:20:35;;;;;;;2.23;2.10;;;18.00;99.90;;;;;;4937500;29;20470;-71
2021/08/07 01:23:10;;;;;;;3.20;2.40;;;17.90;99.90;;;;;;4937690;29;20205;-71
2021/08/07 01:25:45;;;;;;;3.60;2.20;;;17.90;99.90;;;;;;4937143;29;20506;-71
2021/08/07 01:28:11;;;;;;;2.30;2.10;;;17.90;99.90;;;;;;4937852;29;20204;-71
2021/08/07 01:30:37;;;;;;;2.20;2.10;;;17.90;99.90;;;;;;4937461;29;20410;-71
2021/08/07 01:33:03;;;;;;;3.57;2.47;;;17.90;99.90;;;;;;4937322;29;20442;-71
2021/08/07 01:35:29;;;;;;;2.23;2.03;;;17.90;99.90;;;;;;4937593;29;20201;-71
2021/08/07 01:37:54;;;;;;;2.10;1.90;;;17.90;99.90;;;;;;4937094;29;20405;-71
2021/08/07 01:40:20;;;;;;;2.70;2.20;;;17.90;99.90;;;;;;4937077;29;20174;-71
2021/08/07 01:42:45;;;;;;;3.30;2.53;;;17.90;99.90;;;;;;4936911;29;20714;-71
2021/08/07 01:45:11;;;;;;;2.33;2.10;;;17.90;99.90;;;;;;4937172;29;20175;-72
2021/08/07 01:48:08;;;;;;;2.40;2.20;;;17.90;99.90;;;;;;4937880;29;20171;-71
2021/08/07 01:50:38;;;;;;;2.60;2.40;;;18.00;99.90;;;;;;4937371;29;20390;-71
2021/08/07 01:53:13;;;;;;;3.83;1.87;;;18.00;99.90;;;;;;4937461;29;20825;-71
2021/08/07 01:55:48;;;;;;;2.63;2.40;;;18.00;99.90;;;;;;4936850;29;20441;-71
2021/08/07 01:58:33;;;;;;;1.93;1.83;;;17.90;99.90;;;;;;4937163;29;20433;-71
2021/08/07 02:01:00;;;;;;;1.63;1.53;;;18.00;99.90;;;;;;4937123;29;20466;-71
2021/08/07 02:03:28;;;;;;;2.60;2.13;;;18.00;99.90;;;;;;4920124;29;20438;-71
2021/08/07 02:05:53;;;;;;;3.97;2.30;;;18.00;99.90;;;;;;4936704;29;20410;-71
2021/08/07 02:08:19;;;;;;;2.23;2.03;;;18.00;99.90;;;;;;4936647;29;20467;-72
2021/08/07 02:10:47;;;;;;;2.60;2.40;;;18.00;99.90;;;;;;4936949;29;20743;-72
2021/08/07 02:13:15;;;;;;;1.90;1.70;;;18.00;99.90;;;;;;4936652;29;20276;-71
2021/08/07 02:15:40;;;;;;;2.30;2.10;;;18.00;99.90;;;;;;4936819;29;20434;-71
2021/08/07 02:18:07;;;;;;;2.90;2.10;;;18.00;99.90;;;;;;4936441;29;20426;-70
2021/08/07 02:20:33;;;;;;;2.73;1.83;;;18.00;99.90;;;;;;4937259;29;20170;-72
2021/08/07 02:22:59;;;;;;;2.57;2.37;;;18.00;99.90;;;;;;4936685;29;20536;-71
2021/08/07 02:25:25;;;;;;;2.57;2.13;;;18.00;99.90;;;;;;4936904;29;20189;-71
2021/08/07 02:27:51;;;;;;;2.30;2.10;;;18.00;99.90;;;;;;4935675;29;20506;-71
2021/08/07 02:30:17;;;;;;;2.20;1.90;;;18.00;99.90;;;;;;4936627;29;20402;-71
2021/08/07 02:32:44;;;;;;;2.00;1.90;;;18.00;99.90;;;;;;4936543;29;20929;-71
2021/08/07 02:35:11;;;;;;;2.17;1.90;;;18.10;99.90;;;;;;4936548;29;20493;-71
2021/08/07 02:37:38;;;;;;;3.50;2.47;;;18.00;99.90;;;;;;4936410;29;20414;-71
2021/08/07 02:40:07;;;;;;;2.80;2.17;;;17.90;99.90;;;;;;4936574;29;20883;-71
2021/08/07 02:42:33;;;;;;;2.83;2.13;;;17.70;99.90;;;;;;4936085;29;20426;-71
2021/08/07 02:45:00;;;;;;;3.00;2.40;;;17.60;99.90;;;;;;4936485;29;20422;-71
2021/08/07 02:47:26;;;;;;;3.70;2.83;;;17.40;99.90;;;;;;4936472;29;20784;-71
2021/08/07 02:49:53;;;;;;;3.20;2.90;;;17.40;99.90;;;;;;4936082;29;20458;-71
2021/08/07 02:52:20;;;;;;;2.53;2.33;;;17.30;99.90;;;;;;4919290;29;20790;-71
2021/08/07 02:54:46;;;;;;;2.43;2.20;;;17.30;99.90;;;;;;4936168;29;20406;-71
2021/08/07 02:57:12;;;;;;;3.40;2.57;;;17.20;99.90;;;;;;4936624;29;20757;-71
2021/08/07 02:59:39;;;;;;;3.70;2.58;;;17.20;99.90;;;;;;4935066;29;20946;-71
2021/08/07 03:02:04;;;;;;;3.47;2.40;;;17.10;99.90;;;;;;4935998;29;20265;-71
2021/08/07 03:04:30;;;;;;;2.27;2.10;;;17.10;99.90;;;;;;4935847;29;20554;-71
2021/08/07 03:06:55;;;;;;;2.80;2.40;;;17.00;99.90;;;;;;4936258;29;20533;-71
2021/08/07 03:09:21;;;;;;;3.27;2.40;;;16.90;99.90;;;;;;4936053;29;20658;-71
2021/08/07 03:11:47;;;;;;;2.77;2.50;;;16.90;99.90;;;;;;4935994;29;20181;-71
2021/08/07 03:14:12;;;;;;;2.13;2.03;;;16.80;99.90;;;;;;4935526;29;20232;-72
2021/08/07 03:16:38;;;;;;;2.60;2.40;;;16.70;99.90;;;;;;4936442;29;20182;-71
2021/08/07 03:19:04;;;;;;;2.77;2.27;;;16.80;99.90;;;;;;4936251;29;20179;-72
2021/08/07 03:21:30;;;;;;;3.30;3.00;;;16.70;99.90;;;;;;4935945;29;20959;-71
2021/08/07 03:23:55;;;;;;;2.50;2.30;;;16.70;99.90;;;;;;4935642;29;20564;-71
2021/08/07 03:26:22;;;;;;;3.30;3.00;;;16.70;99.90;;;;;;4936040;29;20193;-71
2021/08/07 03:28:48;;;;;;;6.63;2.50;;;16.70;99.90;;;;;;4935964;29;20242;-71
2021/08/07 03:31:13;;;;;;;2.40;2.23;;;16.60;99.90;;;;;;4936317;29;20418;-71
2021/08/07 03:33:39;;;;;;;3.50;3.20;;;16.60;99.90;;;;;;4935927;29;20210;-71
2021/08/07 03:36:05;;;;;;;4.13;2.80;;;16.60;99.90;;;;;;4935777;29;20202;-71
2021/08/07 03:38:31;;;;;;;2.60;2.40;;;16.50;99.90;;;;;;4935992;29;20175;-71
2021/08/07 03:40:57;;;;;;;2.70;2.50;;;16.50;99.90;;;;;;4935704;29;20500;-70
2021/08/07 03:43:22;;;;;;;2.87;2.60;;;16.50;99.90;;;;;;4936008;29;20695;-71
2021/08/07 03:45:48;;;;;;;2.77;2.57;;;16.50;99.90;;;;;;4935607;29;20644;-71
2021/08/07 03:48:15;;;;;;;4.10;2.73;;;16.40;99.90;;;;;;4935450;29;20449;-71
2021/08/07 03:50:40;;;;;;;2.80;2.57;;;16.40;99.90;;;;;;4935775;29;20177;-70
2021/08/07 03:53:06;;;;;;;2.87;2.67;;;16.40;99.90;;;;;;4935313;29;20936;-71
2021/08/07 03:55:31;;;;;;;3.03;2.70;;;16.40;99.90;;;;;;4935117;29;20190;-70
2021/08/07 03:57:59;;;;;;;3.33;3.00;;;16.40;99.90;;;;;;4935838;29;20173;-70
2021/08/07 04:00:27;;;;;;;4.87;3.50;;;16.40;99.90;;;;;;4936256;29;20249;-70
2021/08/07 04:02:53;;;;;;;3.85;3.45;;;16.40;99.90;;;;;;4937894;29;20755;-70
2021/08/07 04:05:19;;;;;;;4.40;2.63;;;16.40;99.90;;;;;;4938988;29;20185;-70
2021/08/07 04:07:45;;;;;;;2.87;2.67;;;16.40;99.90;;;;;;4938830;29;20434;-71
2021/08/07 04:10:12;;;;;;;4.57;2.53;;;16.40;99.90;;;;;;4939246;29;20417;-71
2021/08/07 04:12:38;;;;;;;2.80;2.23;;;16.40;99.90;;;;;;4938936;29;20213;-71
2021/08/07 04:15:05;;;;;;;2.97;2.43;;;16.40;99.90;;;;;;4937848;29;20828;-71
2021/08/07 04:17:31;;;;;;;2.47;2.10;;;16.40;99.90;;;;;;4939178;29;20422;-71
2021/08/07 04:19:56;;;;;;;2.67;2.43;;;16.50;99.90;;;;;;4939088;29;20446;-71
2021/08/07 04:22:22;;;;;;;2.70;2.50;;;16.50;99.90;;;;;;4938953;29;20185;-71
2021/08/07 04:24:48;;;;;;;2.97;2.27;;;16.50;99.90;;;;;;4939766;29;20175;-70
2021/08/07 04:27:14;;;;;;;2.83;2.17;;;16.50;99.90;;;;;;4939643;29;20632;-70
2021/08/07 04:29:39;;;;;;;1.90;1.80;;;16.50;99.90;;;;;;4939942;29;20660;-70
2021/08/07 04:32:05;;;;;;;3.80;2.20;;;16.50;99.90;;;;;;4938712;29;20410;-71
2021/08/07 04:34:31;;;;;;;2.70;2.25;;;16.60;99.90;;;;;;4937692;29;20413;-71
2021/08/07 04:36:56;;;;;;;2.83;2.40;;;16.70;99.90;;;;;;4938057;29;20644;-71
2021/08/07 04:39:22;;;;;;;4.40;2.83;;;16.80;99.90;;;;;;4939007;29;20178;-70
2021/08/07 04:41:47;;;;;;;2.90;2.20;;;16.80;99.90;;;;;;4938776;29;20246;-71
2021/08/07 04:44:13;;;;;;;7.00;2.10;;;16.80;99.90;;;;;;4938081;29;20198;-72
2021/08/07 04:46:38;;;;;;;2.30;2.10;;;16.80;99.90;;;;;;4938221;29;20210;-71
2021/08/07 04:49:04;;;;;;;2.20;1.97;;;16.80;99.90;;;;;;4938716;29;20297;-71
2021/08/07 04:51:30;;;;;;;2.23;1.50;;;16.90;99.90;;;;;;4938007;29;20193;-72
2021/08/07 04:53:55;;;;;;;2.97;2.00;;;17.00;99.90;;;;;;4937980;29;20190;-71
2021/08/07 04:56:21;;;;;;;2.20;1.87;;;17.00;99.90;;;;;;4938183;29;20167;-71
2021/08/07 04:58:46;;;;;;;2.70;2.20;;;16.90;99.90;;;;;;4937955;29;20182;-71
2021/08/07 05:01:12;;;;;;;3.27;2.07;;;17.00;99.90;;;;;;4938114;29;20189;-71
2021/08/07 05:03:37;;;;;;;3.10;2.30;;;17.10;99.90;;;;;;4937966;29;20209;-71
2021/08/07 05:06:03;;;;;;;2.07;1.77;;;17.20;99.90;;;;;;4937249;29;20443;-71
2021/08/07 05:08:29;;;;;;;3.50;1.90;;;17.30;99.90;;;;;;4937962;29;20241;-71
2021/08/07 05:10:56;;;;;;;4.00;2.00;;;17.40;99.90;;;;;;4937629;29;20185;-71
2021/08/07 05:13:21;;;;;;;1.80;1.60;;;17.40;99.90;;;;;;4937773;29;20911;-71
2021/08/07 05:15:47;;;;;;;4.60;2.27;;;17.50;99.90;;;;;;4937462;29;20466;-70
2021/08/07 05:18:12;;;;;;;2.40;1.60;;;17.50;99.90;;;;;;4937716;29;20178;-71
2021/08/07 05:20:38;;;;;;;4.03;1.83;;;17.60;99.90;;;;;;4937637;29;20197;-71
2021/08/07 05:23:03;;;;;;;2.50;2.10;;;17.60;99.90;;;;;;4937756;29;20190;-71
2021/08/07 05:25:29;;;;;;;2.00;1.80;;;17.70;99.90;;;;;;4937673;29;20253;-71
2021/08/07 05:27:55;;;;;;;4.53;2.43;;;17.70;99.90;;;;;;4937931;29;20181;-70
2021/08/07 05:30:20;;;;;;;1.70;1.60;;;17.70;99.90;;;;;;4920549;29;20221;-70
2021/08/07 05:32:47;;;;;;;2.40;1.90;;;17.80;99.90;;;;;;4937294;29;20194;-71
2021/08/07 05:35:12;;;;;;;4.77;2.20;;;17.80;99.90;;;;;;4937816;29;20174;-70
2021/08/07 05:37:42;;;;;;;1.80;1.70;;;17.80;99.90;;;;;;4938595;29;20407;-71
2021/08/07 05:40:09;;;;;;;3.90;1.83;;;17.80;99.90;;;;;;4937561;29;20178;-71
2021/08/07 05:42:35;;;;;;;3.53;1.80;;;17.80;99.90;;;;;;4936756;29;20436;-71
2021/08/07 05:45:01;;;;;;;3.03;1.80;;;17.80;99.90;;;;;;4937208;29;20465;-71
2021/08/07 05:47:26;;;;;;;2.23;1.60;;;17.90;99.90;;;;;;4937474;29;20718;-71
2021/08/07 05:49:52;;;;;;;2.37;1.60;;;17.90;99.90;;;;;;4936998;29;20233;-71
2021/08/07 05:52:17;;;;;;;3.27;2.03;;;17.90;99.90;;;;;;4936982;29;20177;-71
2021/08/07 05:54:43;;;;;;;2.77;1.70;;;18.00;99.90;;;;;;4937164;29;20548;-71
2021/08/07 05:57:08;;;;;;;1.43;1.33;;;18.00;99.90;;;;;;4937543;29;20265;-70
2021/08/07 05:59:34;;;;;;;1.70;1.47;;;18.00;99.90;;;;;;4937658;29;20324;-71
2021/08/07 06:02:00;;;;;;;3.80;1.70;;;18.00;99.90;;;;;;4937967;29;20174;-71
2021/08/07 06:04:25;;;;;;;3.30;1.90;;;18.10;99.90;;;;;;4937067;29;20194;-70
2021/08/07 06:06:51;;;;;;;3.60;1.67;;;18.20;99.90;;;;;;4937765;29;20640;-71
2021/08/07 06:09:16;;;;;;;1.97;1.77;;;18.20;99.90;;;;;;4936713;29;20209;-71
2021/08/07 06:11:42;;;;;;;1.90;1.80;;;18.20;99.90;;;;;;4937369;29;20196;-70
2021/08/07 06:14:08;;;;;;;2.93;1.90;;;18.30;99.90;;;;;;4929654;29;20317;-71
2021/08/07 06:16:33;;;;;;;3.93;1.90;;;18.30;99.90;;;;;;4925476;29;20649;-71
2021/08/07 06:18:59;;;;;;;2.00;1.53;;;18.30;99.90;;;;;;4931316;29;20186;-71
2021/08/07 06:21:24;;;;;;;2.27;1.67;;;18.40;99.90;;;;;;4936701;29;20170;-72
2021/08/07 06:23:50;;;;;;;1.80;1.50;;;18.40;99.90;;;;;;4926245;29;20229;-71
2021/08/07 06:26:16;;;;;;;2.30;2.10;;;18.40;99.90;;;;;;4917388;29;20178;-72
2021/08/07 06:28:42;;;;;;;2.20;1.73;;;18.50;99.90;;;;;;4917250;29;20624;-71
2021/08/07 06:31:09;;;;;;;2.60;1.70;;;18.50;99.90;;;;;;4917864;29;20411;-71
2021/08/07 06:33:35;;;;;;;3.93;1.70;;;18.60;99.90;;;;;;4917418;29;20187;-71
2021/08/07 06:36:01;;;;;;;2.73;1.97;;;18.60;99.90;;;;;;4917642;29;20957;-71
2021/08/07 06:38:27;;;;;;;2.50;1.70;;;18.70;99.90;;;;;;4916386;29;20419;-73
2021/08/07 06:40:52;;;;;;;2.50;1.60;;;18.80;99.90;;;;;;4918071;29;20269;-73
2021/08/07 06:43:19;;;;;;;3.27;1.70;;;18.80;99.90;;;;;;4917332;29;20933;-72
2021/08/07 06:45:45;;;;;;;3.97;1.70;;;19.00;99.90;;;;;;4917908;29;20703;-74
2021/08/07 06:48:11;;;;;;;2.10;1.77;;;19.00;99.90;;;;;;4925457;29;20498;-73
2021/08/07 06:50:36;;;;;;;2.70;1.90;;;19.10;99.90;;;;;;4906114;29;20557;-73
2021/08/07 06:53:02;;;;;;;2.37;1.63;;;19.30;99.90;;;;;;4925387;29;20201;-71
2021/08/07 06:55:27;;;;;;;3.17;1.70;;;19.30;99.90;;;;;;4930526;29;20186;-72
2021/08/07 06:57:53;;;;;;;2.37;1.73;;;19.30;99.90;;;;;;4926229;29;20202;-72
2021/08/07 07:00:18;;;;;;;2.73;2.07;;;19.30;99.90;;;;;;4926410;29;20201;-72
2021/08/07 07:02:44;;;;;;;3.30;2.17;;;19.40;99.90;;;;;;4919767;29;20218;-71
2021/08/07 07:05:10;;;;;;;2.50;1.60;;;19.30;99.90;;;;;;4932301;29;20690;-72
2021/08/07 07:07:39;;;;;;;2.20;1.57;;;19.20;99.90;;;;;;4930128;29;20201;-72
2021/08/07 07:10:07;;;;;;;3.23;1.90;;;19.20;99.90;;;;;;4923071;29;21187;-70
2021/08/07 07:12:33;;;;;;;3.87;2.03;;;19.10;99.90;;;;;;4913948;29;21056;-71
2021/08/07 07:14:58;;;;;;;2.10;1.90;;;19.10;99.90;;;;;;4923989;29;20430;-70
2021/08/07 07:17:25;;;;;;;3.40;1.83;;;19.00;99.90;;;;;;4932677;29;20174;-72
2021/08/07 07:19:50;;;;;;;3.43;2.00;;;19.00;99.90;;;;;;4932829;29;20202;-72
2021/08/07 07:22:16;;;;;;;2.80;2.07;;;19.00;99.90;;;;;;4932266;29;20430;-71
2021/08/07 07:24:41;;;;;;;1.90;1.60;;;19.00;99.90;;;;;;4932026;29;20193;-71
2021/08/07 07:27:07;;;;;;;3.00;1.90;;;19.00;99.90;;;;;;4932265;29;20186;-71
2021/08/07 07:29:33;;;;;;;5.60;2.10;;;19.00;99.90;;;;;;4932178;29;20281;-72
2021/08/07 07:31:59;;;;;;;4.00;2.20;;;19.00;99.90;;;;;;4932557;29;20644;-72
2021/08/07 07:34:24;;;;;;;3.37;1.80;;;19.10;99.90;;;;;;4932379;29;20205;-71
2021/08/07 07:36:50;;;;;;;3.30;1.93;;;19.10;99.90;;;;;;4934605;29;20619;-71
2021/08/07 07:39:16;;;;;;;3.97;2.20;;;19.20;99.90;;;;;;4936153;29;20679;-71
2021/08/07 07:41:41;;;;;;;2.67;2.03;;;19.30;99.90;;;;;;4935438;29;20202;-71
2021/08/07 07:44:07;;;;;;;2.27;1.90;;;19.40;99.90;;;;;;4935616;29;20198;-71
2021/08/07 07:46:32;;;;;;;2.10;1.90;;;19.60;99.90;;;;;;4935705;29;20249;-71
2021/08/07 07:48:58;;;;;;;4.28;2.17;;;19.60;99.90;;;;;;4933578;29;20445;-72
2021/08/07 07:51:23;;;;;;;2.47;2.13;;;19.70;99.90;;;;;;4924270;29;20266;-71
2021/08/07 07:53:49;;;;;;;3.67;2.07;;;19.80;99.90;;;;;;4923901;29;20298;-71
2021/08/07 07:56:14;;;;;;;4.77;2.50;;;19.90;99.90;;;;;;4920618;29;20189;-72
2021/08/07 07:58:40;;;;;;;2.50;2.10;;;19.90;99.90;;;;;;4923229;29;20261;-71
2021/08/07 08:01:05;;;;;;;3.23;1.97;;;19.90;99.90;;;;;;4929743;29;20235;-71
2021/08/07 08:03:31;;;;;;;4.50;3.80;;;19.90;99.90;;;;;;4929078;29;20976;-72
2021/08/07 08:05:57;;;;;;;5.47;2.47;;;20.00;99.90;;;;;;4925290;29;20187;-71
2021/08/07 08:08:22;;;;;;;2.20;2.00;;;20.00;99.90;;;;;;4916224;29;20242;-71
2021/08/07 08:10:48;;;;;;;2.72;1.70;;;20.00;99.90;;;;;;4927957;29;20325;-71
2021/08/07 08:13:13;;;;;;;4.87;2.23;;;20.00;99.90;;;;;;4934386;29;20222;-71
2021/08/07 08:15:40;;;;;;;2.57;1.80;;;20.10;99.90;;;;;;4921755;29;20194;-71
2021/08/07 08:18:07;;;;;;;4.07;2.20;;;20.10;99.90;;;;;;4927613;29;20415;-72
2021/08/07 08:20:34;;;;;;;4.27;1.90;;;20.10;99.90;;;;;;4931093;29;20193;-70
2021/08/07 08:23:00;;;;;;;2.60;2.40;;;20.10;99.90;;;;;;4934530;29;20446;-71
2021/08/07 08:25:28;;;;;;;4.13;1.77;;;20.10;99.90;;;;;;4931692;29;20536;-71
2021/08/07 08:27:55;;;;;;;2.03;1.93;;;20.10;99.90;;;;;;4923841;29;20808;-71
2021/08/07 08:30:21;;;;;;;2.77;2.20;;;20.20;99.90;;;;;;4918343;29;20441;-71
2021/08/07 08:32:46;;;;;;;2.83;1.80;;;20.30;99.90;;;;;;4930560;29;20449;-71
2021/08/07 08:35:12;;;;;;;4.10;2.03;;;20.30;99.90;;;;;;4929431;29;20292;-72
2021/08/07 08:37:38;;;;;;;2.77;2.47;;;20.40;99.90;;;;;;4919672;29;20190;-71
2021/08/07 08:40:05;;;;;;;4.83;2.00;;;20.50;99.90;;;;;;4914665;29;20174;-70
2021/08/07 08:42:30;;;;;;;2.53;1.70;;;20.60;99.90;;;;;;4915999;29;20564;-71
2021/08/07 08:44:56;;;;;;;5.10;2.37;;;20.80;99.90;;;;;;4923456;29;20437;-71
2021/08/07 08:47:22;;;;;;;4.35;2.50;;;20.80;99.90;;;;;;4934285;29;20551;-71
2021/08/07 08:49:51;;;;;;;2.10;1.90;;;20.90;99.90;;;;;;4935217;29;21060;-70
2021/08/07 08:52:21;;;;;;;7.20;2.37;;;20.90;99.90;;;;;;4933178;29;20425;-71
2021/08/07 08:54:47;;;;;;;4.20;2.37;;;20.80;99.90;;;;;;4924548;29;20817;-71
2021/08/07 08:57:13;;;;;;;3.50;2.33;;;20.70;99.90;;;;;;4925579;29;20482;-71
2021/08/07 08:59:38;;;;;;;10.60;2.47;;;20.80;99.90;;;;;;4928767;29;20469;-71
2021/08/07 09:02:04;;;;;;;3.20;2.43;;;20.80;99.90;;;;;;4916620;29;20202;-71
2021/08/07 09:04:30;;;;;;;2.00;1.80;;;20.90;99.90;;;;;;4915671;29;20419;-71
2021/08/07 09:06:55;;;;;;;3.10;2.17;;;20.90;99.90;;;;;;4915867;29;20641;-72
2021/08/07 09:09:42;;;;;;;2.40;2.13;;;20.90;99.90;;;;;;4915584;29;20211;-71
2021/08/07 09:12:09;;;;;;;3.07;2.07;;;21.00;99.90;;;;;;4922446;29;20296;-71
2021/08/07 09:14:47;;;;;;;3.40;2.40;;;21.10;99.90;;;;;;4951619;29;20421;-70
2021/08/07 09:17:18;;;;;;;3.13;2.30;;;21.10;99.90;;;;;;4954147;29;20389;-71
2021/08/07 09:19:44;;;;;;;2.57;2.03;;;21.00;99.90;;;;;;4953166;29;20491;-71
2021/08/07 09:22:11;;;;;;;2.77;2.20;;;20.90;99.90;;;;;;4952279;28;20803;-71
2021/08/07 09:24:56;;;;;;;2.83;1.97;;;21.00;99.90;;;;;;4950518;29;20856;-70
2021/08/07 09:27:28;;;;;;;4.60;2.00;;;21.30;99.90;;;;;;4951474;29;20829;-71
2021/08/07 09:29:53;;;;;;;5.67;2.50;;;21.50;99.90;;;;;;4950730;28;20560;-70
2021/08/07 09:32:19;;;;;;;5.70;2.27;;;21.60;99.90;;;;;;4951439;28;20819;-71
2021/08/07 09:35:01;;;;;;;3.43;2.10;;;21.60;99.90;;;;;;4947134;29;20906;-71
2021/08/07 09:37:28;;;;;;;2.33;1.90;;;21.60;99.90;;;;;;4920052;29;20182;-71
2021/08/07 09:39:53;;;;;;;3.10;2.20;;;21.50;99.90;;;;;;4921300;29;20422;-71
2021/08/07 09:42:19;;;;;;;4.40;2.20;;;21.40;99.90;;;;;;4933881;29;20414;-71
2021/08/07 09:44:58;;;;;;;3.83;2.40;;;21.30;99.90;;;;;;4933768;29;20683;-71
2021/08/07 09:47:23;;;;;;;3.10;2.17;;;21.20;99.90;;;;;;4928923;29;20221;-71
2021/08/07 09:49:49;;;;;;;3.45;2.53;;;21.10;99.90;;;;;;4932769;29;20939;-71
2021/08/07 09:52:15;;;;;;;2.83;2.00;;;21.10;99.90;;;;;;4925671;29;20217;-72
2021/08/07 09:54:43;;;;;;;3.40;2.30;;;21.20;99.90;;;;;;4933726;29;20633;-72
2021/08/07 09:57:10;;;;;;;3.83;2.00;;;21.30;99.90;;;;;;4930696;29;20187;-71
2021/08/07 09:59:47;;;;;;;2.70;2.27;;;21.30;99.90;;;;;;4913815;29;20399;-71
2021/08/07 10:02:39;;;;;;;3.07;2.27;;;21.50;99.90;;;;;;4914889;29;20516;-70
2021/08/07 10:05:08;;;;;;;3.83;2.33;;;21.70;99.90;;;;;;4913484;29;20423;-71
2021/08/07 10:07:34;;;;;;;2.93;2.30;;;21.80;99.90;;;;;;4914653;29;20415;-71
2021/08/07 10:10:00;;;;;;;3.13;2.70;;;21.90;99.90;;;;;;4914343;29;21096;-70
2021/08/07 10:12:25;;;;;;;2.83;2.53;;;21.90;99.90;;;;;;4914149;29;20202;-71
2021/08/07 10:14:51;;;;;;;2.43;1.90;;;22.00;99.90;;;;;;4914532;29;20667;-71
2021/08/07 10:17:19;;;;;;;3.03;2.00;;;21.80;99.90;;;;;;4914463;29;20175;-71
2021/08/07 10:19:47;;;;;;;3.03;2.10;;;21.70;99.90;;;;;;4914660;29;20513;-71
2021/08/07 10:22:14;;;;;;;3.50;2.30;;;21.70;99.90;;;;;;4914448;29;20437;-71
2021/08/07 10:24:44;;;;;;;5.97;2.30;;;21.70;99.90;;;;;;4914220;29;20894;-72
2021/08/07 10:27:11;;;;;;;2.00;1.90;;;21.70;99.90;;;;;;4914378;29;20403;-70
2021/08/07 10:29:45;;;;;;;3.10;2.27;;;21.80;99.90;;;;;;4948749;29;20468;-71
2021/08/07 10:32:14;;;;;;;2.37;1.97;;;21.70;99.90;;;;;;4952154;28;20420;-71
2021/08/07 10:34:48;;;;;;;5.43;2.40;;;21.80;99.90;;;;;;4954196;29;20609;-73
2021/08/07 10:37:14;;;;;;;3.47;1.83;;;21.70;99.90;;;;;;4948359;29;20406;-71
2021/08/07 10:39:40;;;;;;;2.40;1.80;;;21.90;99.90;;;;;;4918439;29;20467;-71
2021/08/07 10:42:07;;;;;;;3.20;2.10;;;21.80;99.90;;;;;;4935642;29;20508;-71
2021/08/07 10:44:35;;;;;;;3.27;2.00;;;22.00;99.90;;;;;;4936098;29;20255;-71
2021/08/07 10:47:01;;;;;;;3.60;2.07;;;22.00;99.90;;;;;;4936226;29;20837;-71
2021/08/07 10:49:32;;;;;;;3.67;2.20;;;22.10;99.90;;;;;;4935979;29;20560;-71
2021/08/07 10:51:58;;;;;;;3.20;1.73;;;22.20;99.90;;;;;;4936261;29;20193;-71
2021/08/07 10:54:26;;;;;;;2.07;1.87;;;22.20;99.80;;;;;;4935872;29;20433;-71
2021/08/07 10:56:53;;;;;;;4.73;2.07;;;22.20;99.20;;;;;;4936588;29;20490;-71
2021/08/07 10:59:24;;;;;;;4.67;1.80;;;22.20;98.20;;;;;;4936240;29;20497;-70
2021/08/07 11:01:52;;;;;;;2.90;1.63;;;22.20;98.20;;;;;;4936325;29;20748;-70
2021/08/07 11:04:22;;;;;;;3.73;1.90;;;22.20;98.10;;;;;;4936455;29;20453;-71
2021/08/07 11:06:56;;;;;;;3.50;1.80;;;22.30;98.20;;;;;;4936436;29;20414;-71
2021/08/07 11:09:35;;;;;;;3.90;2.00;;;22.30;97.70;;;;;;4935885;29;20516;-71
2021/08/07 11:12:13;;;;;;;3.83;1.80;;;22.40;97.70;;;;;;4940091;29;20259;-71
2021/08/07 11:14:47;;;;;;;3.93;2.17;;;22.50;97.50;;;;;;4939950;29;20461;-71
2021/08/07 11:17:12;;;;;;;3.73;1.60;;;22.50;97.50;;;;;;4940532;29;20402;-70
2021/08/07 11:19:50;;;;;;;2.70;1.47;;;22.50;97.40;;;;;;4939907;29;20429;-70
2021/08/07 11:22:40;;;;;;;3.40;1.90;;;22.50;97.60;;;;;;4940076;29;20185;-70
2021/08/07 11:25:06;;;;;;;4.53;1.83;;;22.40;97.70;;;;;;4940405;29;20418;-69
2021/08/07 11:27:48;;;;;;;4.37;1.87;;;22.30;98.00;;;;;;4940489;29;20477;-70
2021/08/07 11:30:24;;;;;;;3.43;1.80;;;22.40;98.10;;;;;;4929949;29;20254;-70
2021/08/07 11:33:00;;;;;;;3.03;2.00;;;22.40;98.10;;;;;;4919646;29;20422;-70
2021/08/07 11:35:52;;;;;;;3.17;2.03;;;22.50;98.30;;;;;;4920193;29;20170;-71
2021/08/07 11:38:27;;;;;;;2.85;1.90;;;22.40;98.60;;;;;;4919161;29;20478;-71
2021/08/07 11:41:06;;;;;;;3.47;2.00;;;22.30;99.80;;;;;;4920180;29;20163;-71
2021/08/07 11:43:43;;;;;;;9.73;2.33;;;22.30;99.90;;;;;;4920709;29;20590;-70
2021/08/07 11:46:14;;;;;;;4.30;2.80;;;21.80;99.90;;;;;;4920548;29;20447;-70
2021/08/07 11:48:43;;;;;;;2.30;1.77;;;21.70;99.90;;;;;;4920636;29;20470;-70
2021/08/07 11:51:20;;;;;;;2.30;1.73;;;21.60;99.90;;;;;;4920356;29;20411;-71
2021/08/07 11:53:46;;;;;;;2.57;1.90;;;21.50;99.90;;;;;;4920164;29;20481;-71
2021/08/07 11:56:14;;;;;;;3.27;2.17;;;21.40;99.90;;;;;;4919727;29;20902;-71
2021/08/07 11:58:52;;;;;;;2.67;2.00;;;21.20;99.90;;;;;;4920395;29;20774;-70
2021/08/07 12:01:21;;;;;;;3.40;1.87;;;21.20;99.90;;;;;;4919516;29;20423;-71
2021/08/07 12:03:52;;;;;;;2.20;1.93;;;21.10;99.90;;;;;;4920319;29;20435;-70
2021/08/07 12:06:20;;;;;;;3.17;2.00;;;21.00;99.90;;;;;;4919886;29;20498;-71
2021/08/07 12:08:47;;;;;;;2.17;1.97;;;21.00;99.90;;;;;;4942311;29;21065;-70
2021/08/07 12:11:16;;;;;;;4.90;2.07;;;21.10;99.90;;;;;;4956801;29;20914;-71
2021/08/07 12:13:48;;;;;;;4.03;2.23;;;21.10;99.90;;;;;;4957598;28;20449;-71
2021/08/07 12:16:17;;;;;;;3.20;1.90;;;21.00;99.90;;;;;;4957702;29;20417;-71
2021/08/07 12:18:47;;;;;;;4.23;2.10;;;21.10;99.90;;;;;;4957641;29;20413;-71
2021/08/07 12:21:34;;;;;;;4.03;2.00;;;21.40;99.90;;;;;;4957510;28;20437;-71
2021/08/07 12:24:14;;;;;;;2.43;1.87;;;21.70;99.90;;;;;;4957197;28;20440;-71
2021/08/07 12:26:43;;;;;;;2.77;1.43;;;21.80;99.90;;;;;;4957932;29;20397;-71
2021/08/07 12:29:15;;;;;;;1.90;1.57;;;21.90;99.90;;;;;;4958092;29;20937;-70
2021/08/07 12:31:58;;;;;;;1.60;1.50;;;21.80;99.90;;;;;;4957641;29;20413;-71
2021/08/07 12:34:39;;;;;;;2.87;1.80;;;21.80;99.90;;;;;;4957526;28;20437;-71
2021/08/07 12:37:09;;;;;;;2.17;1.63;;;21.80;99.90;;;;;;4958441;29;20437;-71
2021/08/07 12:39:41;;;;;;;4.47;3.00;;;21.60;99.90;;;;;;4958040;29;20476;-71
2021/08/07 12:42:09;;;;;;;2.23;1.90;;;21.60;99.90;;;;;;4957689;28;20468;-70
2021/08/07 12:44:35;;;;;;;3.10;2.67;;;21.60;99.90;;;;;;4957684;28;20508;-70
2021/08/07 12:47:00;;;;;;;1.80;1.70;;;21.60;99.90;;;;;;4957592;28;20468;-70
2021/08/07 12:49:44;;;;;;;2.70;1.80;;;21.50;99.90;;;;;;4957168;29;20550;-70
2021/08/07 12:52:18;;;;;;;2.13;1.50;;;21.50;99.90;;;;;;4957492;28;20212;-70